Time;durP1;ratioP1;P1;durP2;ratioP2;P2;SDS_P1;SDS_P2;PMS_P1;PMS_P2;Temp;Humidity;BMP_temperature;BMP_pressure;BME280_temperature;BME280_humidity;BME280_pressure;Samples;Min_cycle;Max_cycle;Signal;HPM_P1;HPM_P2
2024/01/04 00:00:05;;;;;;;2.27;1.30;;;10.00;99.90;;;;;;5057361;28;20524;-67
2024/01/04 00:02:32;;;;;;;2.50;1.20;;;10.00;99.90;;;;;;5057287;28;20483;-66
2024/01/04 00:05:00;;;;;;;1.90;1.47;;;10.00;99.90;;;;;;5057237;28;20526;-67
2024/01/04 00:07:27;;;;;;;3.60;0.90;;;9.90;99.90;;;;;;5057317;28;20446;-65
2024/01/04 00:09:54;;;;;;;2.67;1.20;;;9.90;99.90;;;;;;5057585;28;20459;-67
2024/01/04 00:12:21;;;;;;;4.10;1.33;;;9.90;99.90;;;;;;5055705;28;20546;-65
2024/01/04 00:14:47;;;;;;;2.40;1.20;;;9.90;99.90;;;;;;5057384;28;20473;-67
2024/01/04 00:17:16;;;;;;;3.00;0.97;;;9.90;99.90;;;;;;5057248;28;20512;-67
2024/01/04 00:19:43;;;;;;;3.10;1.43;;;9.90;99.90;;;;;;5057371;28;20460;-67
2024/01/04 00:22:10;;;;;;;1.67;1.13;;;10.00;99.90;;;;;;5057156;28;20538;-67
2024/01/04 00:24:36;;;;;;;5.87;1.50;;;10.00;99.90;;;;;;5057066;28;20480;-66
2024/01/04 00:27:04;;;;;;;2.17;1.07;;;10.00;99.90;;;;;;5056700;28;20512;-66
2024/01/04 00:29:31;;;;;;;7.73;1.90;;;9.90;99.90;;;;;;5056444;28;20932;-67
2024/01/04 00:31:57;;;;;;;9.47;3.53;;;9.90;99.90;;;;;;5055922;28;20474;-66
2024/01/04 00:34:26;;;;;;;3.90;1.60;;;9.90;99.90;;;;;;5040455;28;20440;-66
2024/01/04 00:36:53;;;;;;;4.87;1.70;;;9.90;99.90;;;;;;5056768;28;20525;-66
2024/01/04 00:39:24;;;;;;;4.23;1.83;;;9.90;99.90;;;;;;5056730;28;20443;-65
2024/01/04 00:41:51;;;;;;;2.80;1.17;;;9.90;99.90;;;;;;5056478;28;20470;-66
2024/01/04 00:44:17;;;;;;;3.70;1.47;;;9.90;99.90;;;;;;5056636;28;20482;-66
2024/01/04 00:46:44;;;;;;;3.63;1.87;;;9.90;99.90;;;;;;5055806;28;21078;-66
2024/01/04 00:49:11;;;;;;;1.90;1.10;;;9.90;99.90;;;;;;5056294;28;20526;-66
2024/01/04 00:51:39;;;;;;;2.33;1.07;;;9.90;99.90;;;;;;5056658;28;20538;-66
2024/01/04 00:54:06;;;;;;;2.60;1.23;;;9.90;99.90;;;;;;5056428;28;20554;-67
2024/01/04 00:56:34;;;;;;;1.33;1.20;;;9.90;99.90;;;;;;5056325;28;20533;-68
2024/01/04 00:59:01;;;;;;;3.90;1.23;;;9.90;99.90;;;;;;5056442;28;20451;-67
2024/01/04 01:01:28;;;;;;;1.50;1.00;;;9.90;99.90;;;;;;5056082;28;20542;-67
2024/01/04 01:03:55;;;;;;;1.53;0.93;;;9.90;99.90;;;;;;5056254;28;20475;-67
2024/01/04 01:06:21;;;;;;;4.03;1.03;;;9.90;99.90;;;;;;5056136;28;20499;-67
2024/01/04 01:08:50;;;;;;;2.13;0.90;;;9.90;99.90;;;;;;5056207;28;20483;-67
2024/01/04 01:11:17;;;;;;;1.57;0.80;;;9.80;99.90;;;;;;5056114;28;20474;-68
2024/01/04 01:13:44;;;;;;;3.57;1.17;;;9.90;99.90;;;;;;5056279;28;20525;-67
2024/01/04 01:16:11;;;;;;;1.63;1.17;;;9.90;99.90;;;;;;5056252;28;20773;-66
2024/01/04 01:18:39;;;;;;;2.40;0.87;;;9.90;99.90;;;;;;5055995;28;20538;-67
2024/01/04 01:21:06;;;;;;;2.73;1.00;;;9.90;99.90;;;;;;5055689;28;20443;-67
2024/01/04 01:23:33;;;;;;;1.13;0.80;;;9.90;99.90;;;;;;5055642;28;20467;-66
2024/01/04 01:26:02;;;;;;;4.87;1.73;;;9.90;99.90;;;;;;5055575;28;20489;-66
2024/01/04 01:28:29;;;;;;;2.30;1.70;;;9.90;99.90;;;;;;5055979;28;20445;-67
2024/01/04 01:30:56;;;;;;;2.33;1.17;;;9.90;99.90;;;;;;5055773;28;20561;-66
2024/01/04 01:33:23;;;;;;;3.37;1.20;;;9.90;99.90;;;;;;5055682;28;20489;-66
2024/01/04 01:35:49;;;;;;;2.80;1.47;;;9.90;99.90;;;;;;5055389;28;20435;-66
2024/01/04 01:38:16;;;;;;;2.30;0.80;;;9.90;99.90;;;;;;5055482;28;20536;-66
2024/01/04 01:40:43;;;;;;;1.67;1.23;;;9.90;99.90;;;;;;5055498;28;20538;-66
2024/01/04 01:43:12;;;;;;;1.60;0.90;;;9.90;99.90;;;;;;5054853;28;20494;-66
2024/01/04 01:45:39;;;;;;;1.33;1.23;;;10.00;99.90;;;;;;5055315;28;20442;-66
2024/01/04 01:48:07;;;;;;;2.40;1.17;;;10.00;99.90;;;;;;5055167;28;20481;-66
2024/01/04 01:50:35;;;;;;;1.33;0.90;;;10.00;99.90;;;;;;5055222;28;20466;-66
2024/01/04 01:53:02;;;;;;;1.30;0.90;;;10.00;99.90;;;;;;5055280;28;20528;-67
2024/01/04 01:55:29;;;;;;;2.10;0.80;;;10.00;99.90;;;;;;5054925;28;20547;-66
2024/01/04 01:57:56;;;;;;;1.73;1.03;;;10.00;99.90;;;;;;5055049;28;20842;-66
2024/01/04 02:00:25;;;;;;;1.50;0.93;;;10.00;99.90;;;;;;5054809;28;20518;-67
2024/01/04 02:02:52;;;;;;;1.60;1.00;;;10.00;99.90;;;;;;5054578;28;20549;-66
2024/01/04 02:05:18;;;;;;;1.20;0.80;;;9.90;99.90;;;;;;5055110;28;20492;-66
2024/01/04 02:07:45;;;;;;;2.00;0.87;;;9.90;99.90;;;;;;5054010;28;20549;-65
2024/01/04 02:10:12;;;;;;;1.67;0.80;;;9.90;99.90;;;;;;5054570;28;20452;-66
2024/01/04 02:12:39;;;;;;;3.60;1.20;;;9.90;99.90;;;;;;5054821;28;20438;-66
2024/01/04 02:15:07;;;;;;;1.40;1.00;;;9.90;99.90;;;;;;5055052;28;20528;-66
2024/01/04 02:17:40;;;;;;;3.70;0.80;;;9.90;99.90;;;;;;5055026;28;20537;-66
2024/01/04 02:20:08;;;;;;;1.20;0.83;;;9.80;99.90;;;;;;5054794;28;20466;-66
2024/01/04 02:22:36;;;;;;;1.63;0.90;;;9.70;99.90;;;;;;5054900;28;20474;-66
2024/01/04 02:25:05;;;;;;;1.20;0.80;;;9.70;99.90;;;;;;5054425;28;20481;-65
2024/01/04 02:27:32;;;;;;;4.73;0.80;;;9.70;99.90;;;;;;5054883;28;20530;-66
2024/01/04 02:29:59;;;;;;;1.30;0.87;;;9.70;99.90;;;;;;5054758;28;20477;-66
2024/01/04 02:32:26;;;;;;;1.47;1.00;;;9.70;99.90;;;;;;5053866;28;20579;-66
2024/01/04 02:34:53;;;;;;;1.60;1.10;;;9.70;99.90;;;;;;5054591;28;20443;-65
2024/01/04 02:37:20;;;;;;;3.83;2.27;;;9.70;99.90;;;;;;5054546;28;20514;-65
2024/01/04 02:39:47;;;;;;;2.03;0.90;;;9.70;99.90;;;;;;5054664;28;20523;-66
2024/01/04 02:42:15;;;;;;;2.57;1.00;;;9.70;99.90;;;;;;5054492;28;20527;-66
2024/01/04 02:44:43;;;;;;;4.13;0.80;;;9.70;99.90;;;;;;5054194;28;20575;-67
2024/01/04 02:47:09;;;;;;;1.30;0.90;;;9.70;99.90;;;;;;5054434;28;20494;-66
2024/01/04 02:49:36;;;;;;;1.70;0.80;;;9.70;99.90;;;;;;5054096;28;20904;-66
2024/01/04 02:52:03;;;;;;;1.47;0.83;;;9.70;99.90;;;;;;5054068;28;20474;-67
2024/01/04 02:54:30;;;;;;;1.03;0.73;;;9.80;99.90;;;;;;5054190;28;20445;-65
2024/01/04 02:56:57;;;;;;;1.20;1.00;;;9.80;99.90;;;;;;5054040;28;20493;-66
2024/01/04 02:59:26;;;;;;;1.77;1.10;;;9.80;99.90;;;;;;5054202;28;20438;-69
2024/01/04 03:01:52;;;;;;;2.03;0.93;;;9.70;99.90;;;;;;5053997;28;20456;-65
2024/01/04 03:04:19;;;;;;;2.40;0.90;;;9.70;99.90;;;;;;5054045;28;20482;-66
2024/01/04 03:06:46;;;;;;;1.20;0.90;;;9.70;99.90;;;;;;5053944;28;20531;-67
2024/01/04 03:09:13;;;;;;;3.47;0.90;;;9.70;99.90;;;;;;5054067;28;20957;-67
2024/01/04 03:11:40;;;;;;;1.17;0.80;;;9.60;99.90;;;;;;5054171;28;20951;-66
2024/01/04 03:14:07;;;;;;;1.87;1.10;;;9.50;99.90;;;;;;5056938;28;20534;-66
2024/01/04 03:16:35;;;;;;;1.10;0.87;;;9.40;99.90;;;;;;5057835;28;20474;-65
2024/01/04 03:19:02;;;;;;;1.37;1.10;;;9.30;99.90;;;;;;5058203;28;20537;-66
2024/01/04 03:21:29;;;;;;;3.83;1.00;;;9.30;99.90;;;;;;5058531;28;20497;-64
2024/01/04 03:23:56;;;;;;;1.80;0.80;;;9.20;99.90;;;;;;5058133;28;20449;-65
2024/01/04 03:26:23;;;;;;;1.40;0.87;;;9.20;99.90;;;;;;5057753;28;20442;-65
2024/01/04 03:28:50;;;;;;;6.43;1.00;;;9.20;99.90;;;;;;5058022;28;20969;-65
2024/01/04 03:31:17;;;;;;;1.53;0.87;;;9.20;99.90;;;;;;5057896;28;20545;-66
2024/01/04 03:33:45;;;;;;;1.30;1.10;;;9.10;99.90;;;;;;5057993;28;20546;-67
2024/01/04 03:36:14;;;;;;;3.87;1.63;;;9.10;99.90;;;;;;5057803;28;20537;-65
2024/01/04 03:38:41;;;;;;;1.50;1.30;;;9.10;99.90;;;;;;5057850;28;20474;-68
2024/01/04 03:41:08;;;;;;;1.67;0.80;;;9.10;99.90;;;;;;5057560;28;20485;-67
2024/01/04 03:43:35;;;;;;;1.10;0.80;;;9.20;99.90;;;;;;5058014;28;20529;-65
2024/01/04 03:46:05;;;;;;;1.70;1.03;;;9.20;99.90;;;;;;5057562;28;20488;-66
2024/01/04 03:48:31;;;;;;;1.10;0.90;;;9.20;99.90;;;;;;5057726;28;20438;-66
2024/01/04 03:51:01;;;;;;;1.30;0.70;;;9.10;99.90;;;;;;5057507;28;20984;-65
2024/01/04 03:53:27;;;;;;;1.63;1.00;;;9.20;99.90;;;;;;5057847;28;20482;-66
2024/01/04 03:55:54;;;;;;;1.60;1.10;;;9.20;99.90;;;;;;5057218;28;20492;-66
2024/01/04 03:58:21;;;;;;;2.30;0.90;;;9.10;99.90;;;;;;5057328;28;20508;-67
2024/01/04 04:00:48;;;;;;;0.90;0.80;;;9.10;99.90;;;;;;5057025;28;20470;-66
2024/01/04 04:03:18;;;;;;;1.67;1.03;;;9.10;99.90;;;;;;5055623;28;20520;-67
2024/01/04 04:05:45;;;;;;;2.40;0.80;;;9.10;99.90;;;;;;5055861;28;20976;-65
2024/01/04 04:08:14;;;;;;;1.60;0.73;;;9.00;99.90;;;;;;5056022;28;20444;-66
2024/01/04 04:10:41;;;;;;;1.57;0.90;;;9.00;99.90;;;;;;5055955;28;20497;-67
2024/01/04 04:13:08;;;;;;;1.10;0.70;;;9.00;99.90;;;;;;5056111;28;20439;-66
2024/01/04 04:15:35;;;;;;;1.40;0.70;;;9.00;99.90;;;;;;5056044;28;20550;-65
2024/01/04 04:18:02;;;;;;;1.00;0.70;;;9.00;99.90;;;;;;5055879;28;20962;-66
2024/01/04 04:20:29;;;;;;;1.70;0.80;;;9.00;99.90;;;;;;5056004;28;20457;-66
2024/01/04 04:22:57;;;;;;;1.50;0.80;;;9.00;99.90;;;;;;5056080;28;20556;-67
2024/01/04 04:25:25;;;;;;;0.90;0.70;;;9.00;99.90;;;;;;5055111;28;20535;-66
2024/01/04 04:27:52;;;;;;;3.40;1.03;;;8.90;99.90;;;;;;5055994;28;20446;-66
2024/01/04 04:30:19;;;;;;;1.07;0.87;;;9.00;99.90;;;;;;5055439;28;20987;-66
2024/01/04 04:32:47;;;;;;;2.50;0.90;;;8.90;99.90;;;;;;5055507;28;20447;-66
2024/01/04 04:35:14;;;;;;;1.20;0.77;;;8.90;99.90;;;;;;5055729;28;20859;-65
2024/01/04 04:37:43;;;;;;;1.20;0.67;;;8.90;99.90;;;;;;5055495;28;20469;-66
2024/01/04 04:40:11;;;;;;;1.20;0.90;;;8.90;99.90;;;;;;5055330;28;20434;-66
2024/01/04 04:42:41;;;;;;;2.47;1.40;;;8.90;99.90;;;;;;5055137;28;20443;-66
2024/01/04 04:45:08;;;;;;;2.70;0.90;;;8.90;99.90;;;;;;5055309;28;20487;-66
2024/01/04 04:47:35;;;;;;;1.23;0.80;;;8.90;99.90;;;;;;5055292;28;20558;-65
2024/01/04 04:50:03;;;;;;;1.20;1.10;;;8.90;99.90;;;;;;5055474;28;20527;-66
2024/01/04 04:52:30;;;;;;;1.47;0.93;;;8.90;99.90;;;;;;5055480;28;20556;-65
2024/01/04 04:54:57;;;;;;;1.00;0.83;;;8.80;99.90;;;;;;5055210;28;20437;-66
2024/01/04 04:57:24;;;;;;;2.00;1.43;;;8.90;99.90;;;;;;5055086;28;20468;-66
2024/01/04 04:59:52;;;;;;;1.37;0.93;;;8.90;99.90;;;;;;5055028;28;20527;-66
2024/01/04 05:02:19;;;;;;;2.63;1.20;;;8.80;99.90;;;;;;5017060;28;1110803;-67
2024/01/04 05:04:46;;;;;;;1.30;1.07;;;8.90;99.90;;;;;;5055603;28;20308;-66
2024/01/04 05:07:13;;;;;;;2.50;0.90;;;8.90;99.90;;;;;;5056270;28;20807;-64
2024/01/04 05:09:40;;;;;;;1.13;0.90;;;8.80;99.90;;;;;;5056213;28;20500;-67
2024/01/04 05:12:08;;;;;;;1.70;1.30;;;8.90;99.90;;;;;;5055693;28;20473;-66
2024/01/04 05:14:34;;;;;;;1.00;0.80;;;8.90;99.90;;;;;;5056254;28;20508;-66
2024/01/04 05:17:03;;;;;;;2.70;1.20;;;8.90;99.90;;;;;;5055992;28;20480;-66
2024/01/04 05:19:30;;;;;;;1.10;1.00;;;8.90;99.90;;;;;;5055972;28;20449;-65
2024/01/04 05:21:57;;;;;;;1.27;1.13;;;8.80;99.90;;;;;;5055885;28;20520;-66
2024/01/04 05:24:23;;;;;;;1.53;1.20;;;8.80;99.90;;;;;;5055964;28;20481;-65
2024/01/04 05:26:50;;;;;;;2.97;1.10;;;8.80;99.90;;;;;;5055792;28;20476;-65
2024/01/04 05:29:17;;;;;;;1.80;1.70;;;8.70;99.90;;;;;;5055509;28;20952;-66
2024/01/04 05:31:44;;;;;;;2.07;1.30;;;8.80;99.90;;;;;;5055424;28;20522;-65
2024/01/04 05:34:12;;;;;;;2.17;1.27;;;8.80;99.90;;;;;;5055543;28;20468;-65
2024/01/04 05:36:39;;;;;;;2.17;1.50;;;8.80;99.90;;;;;;5054898;28;20781;-66
2024/01/04 05:39:06;;;;;;;2.30;1.17;;;8.80;99.90;;;;;;5055472;28;20533;-66
2024/01/04 05:41:33;;;;;;;1.67;1.37;;;8.80;99.90;;;;;;5055653;28;20521;-65
2024/01/04 05:43:59;;;;;;;2.63;1.47;;;8.80;99.90;;;;;;5055496;28;20476;-66
2024/01/04 05:46:26;;;;;;;1.23;1.13;;;8.80;99.90;;;;;;5055423;28;20482;-67
2024/01/04 05:48:54;;;;;;;1.87;1.37;;;8.80;99.90;;;;;;5055143;28;20975;-68
2024/01/04 05:51:22;;;;;;;1.67;1.40;;;8.70;99.90;;;;;;5055320;28;20472;-65
2024/01/04 05:53:49;;;;;;;3.13;1.23;;;8.70;99.90;;;;;;5055326;28;20500;-65
2024/01/04 05:56:16;;;;;;;1.73;1.57;;;8.70;99.90;;;;;;5054981;28;20485;-65
2024/01/04 05:58:43;;;;;;;1.40;1.10;;;8.70;99.90;;;;;;5054914;28;20477;-65
2024/01/04 06:01:10;;;;;;;2.43;1.20;;;8.70;99.90;;;;;;5054865;28;20555;-67
2024/01/04 06:03:37;;;;;;;1.57;1.30;;;8.70;99.90;;;;;;5054293;28;20458;-66
2024/01/04 06:06:04;;;;;;;1.70;1.30;;;8.70;99.90;;;;;;5055078;28;20484;-65
2024/01/04 06:08:32;;;;;;;0.90;0.80;;;8.70;99.90;;;;;;5055053;28;20508;-66
2024/01/04 06:10:59;;;;;;;3.63;1.10;;;8.60;99.90;;;;;;5055028;28;20454;-68
2024/01/04 06:13:27;;;;;;;1.63;1.07;;;8.60;99.90;;;;;;5054540;28;20466;-69
2024/01/04 06:15:56;;;;;;;1.50;1.17;;;8.60;99.90;;;;;;5054963;28;20466;-64
2024/01/04 06:18:23;;;;;;;1.50;1.20;;;8.60;99.90;;;;;;5054637;28;20511;-65
2024/01/04 06:20:50;;;;;;;2.13;1.10;;;8.60;99.90;;;;;;5054834;28;20447;-65
2024/01/04 06:23:17;;;;;;;2.17;1.20;;;8.60;99.90;;;;;;5054863;28;20439;-67
2024/01/04 06:25:46;;;;;;;5.00;1.63;;;8.60;99.90;;;;;;5054800;28;20531;-66
2024/01/04 06:28:13;;;;;;;3.10;1.30;;;8.60;99.90;;;;;;5054067;28;20452;-65
2024/01/04 06:30:40;;;;;;;2.37;1.60;;;8.60;99.90;;;;;;5044980;28;20935;-64
2024/01/04 06:33:06;;;;;;;1.87;1.33;;;8.60;99.90;;;;;;5054776;28;20444;-65
2024/01/04 06:35:33;;;;;;;1.50;1.20;;;8.60;99.90;;;;;;5054275;28;20450;-66
2024/01/04 06:38:02;;;;;;;1.53;1.10;;;8.50;99.90;;;;;;5054527;28;20982;-66
2024/01/04 06:40:29;;;;;;;1.47;0.90;;;8.40;99.90;;;;;;5054271;28;20442;-67
2024/01/04 06:43:03;;;;;;;2.07;1.00;;;8.40;99.90;;;;;;5054485;28;20459;-66
2024/01/04 06:45:30;;;;;;;1.30;1.10;;;8.20;99.90;;;;;;5054370;28;20562;-66
2024/01/04 06:47:57;;;;;;;1.00;0.73;;;8.10;99.90;;;;;;5054491;28;20463;-65
2024/01/04 06:50:24;;;;;;;2.50;0.87;;;8.00;99.90;;;;;;5054448;28;20543;-66
2024/01/04 06:52:51;;;;;;;1.57;1.13;;;8.00;99.90;;;;;;5054176;28;20474;-65
2024/01/04 06:55:18;;;;;;;2.30;1.00;;;7.90;99.90;;;;;;5047124;28;20976;-66
2024/01/04 06:57:45;;;;;;;1.63;0.87;;;7.90;99.90;;;;;;5047401;28;20458;-65
2024/01/04 07:00:15;;;;;;;1.73;0.90;;;7.80;99.90;;;;;;5052708;28;20500;-65
2024/01/04 07:02:42;;;;;;;1.50;0.93;;;7.80;99.90;;;;;;5053867;28;20481;-66
2024/01/04 07:05:16;;;;;;;1.23;1.00;;;7.80;99.90;;;;;;5054046;28;20529;-65
2024/01/04 07:07:43;;;;;;;1.80;0.90;;;7.80;99.90;;;;;;5054693;28;20518;-64
2024/01/04 07:10:11;;;;;;;1.90;1.20;;;7.80;99.90;;;;;;5044305;28;20482;-63
2024/01/04 07:12:39;;;;;;;1.00;0.87;;;7.80;99.90;;;;;;5055536;28;20512;-64
2024/01/04 07:15:06;;;;;;;0.83;0.67;;;7.70;99.90;;;;;;5054923;28;20442;-64
2024/01/04 07:17:35;;;;;;;1.10;1.00;;;7.70;99.90;;;;;;5060084;28;20436;-65
2024/01/04 07:20:02;;;;;;;1.40;1.10;;;7.60;99.90;;;;;;5053748;28;20439;-52
2024/01/04 07:22:30;;;;;;;0.90;0.60;;;7.60;99.90;;;;;;5054000;28;20436;-63
2024/01/04 07:24:57;;;;;;;3.30;0.77;;;7.50;99.90;;;;;;5046587;28;20498;-64
2024/01/04 07:27:23;;;;;;;1.00;0.67;;;7.40;99.90;;;;;;5052187;28;20435;-66
2024/01/04 07:29:51;;;;;;;1.27;0.70;;;7.40;99.90;;;;;;5051205;28;20545;-65
2024/01/04 07:32:18;;;;;;;3.67;0.70;;;7.30;99.90;;;;;;5053878;28;20429;-50
2024/01/04 07:34:47;;;;;;;1.37;1.13;;;7.20;99.90;;;;;;5048985;28;20469;-53
2024/01/04 07:37:14;;;;;;;1.00;0.60;;;7.00;99.90;;;;;;5054106;28;20443;-54
2024/01/04 07:39:41;;;;;;;1.00;0.70;;;6.90;99.90;;;;;;5052178;28;20432;-53
2024/01/04 07:42:08;;;;;;;0.90;0.70;;;6.90;99.90;;;;;;5054036;28;20469;-52
2024/01/04 07:44:35;;;;;;;0.90;0.80;;;6.80;99.90;;;;;;5048717;28;20933;-55
2024/01/04 07:47:02;;;;;;;0.90;0.80;;;6.70;99.90;;;;;;5056178;28;20582;-52
2024/01/04 07:49:28;;;;;;;1.33;0.77;;;6.60;99.90;;;;;;5053762;28;20447;-53
2024/01/04 07:51:57;;;;;;;1.93;0.90;;;6.60;99.90;;;;;;5045727;28;20493;-54
2024/01/04 07:54:26;;;;;;;1.10;0.90;;;6.50;99.90;;;;;;5049412;28;20436;-56
2024/01/04 07:56:52;;;;;;;2.70;1.23;;;6.50;99.90;;;;;;5054064;28;20444;-50
2024/01/04 07:59:21;;;;;;;0.80;0.50;;;6.50;99.90;;;;;;5044126;28;20468;-55
2024/01/04 08:01:48;;;;;;;1.10;0.60;;;6.40;99.90;;;;;;5048709;28;20453;-53
2024/01/04 08:04:15;;;;;;;1.30;0.90;;;6.50;99.90;;;;;;5054844;28;20478;-56
2024/01/04 08:06:42;;;;;;;1.30;1.07;;;6.50;99.90;;;;;;5055782;28;20523;-56
2024/01/04 08:09:11;;;;;;;1.77;0.90;;;6.40;99.90;;;;;;5056801;28;20852;-53
2024/01/04 08:11:39;;;;;;;2.67;1.00;;;6.40;99.90;;;;;;5057321;28;20448;-56
2024/01/04 08:14:06;;;;;;;1.53;1.37;;;6.40;99.90;;;;;;5057324;28;20450;-51
2024/01/04 08:16:32;;;;;;;1.10;0.60;;;6.50;99.90;;;;;;5056815;28;20531;-52
2024/01/04 08:18:59;;;;;;;1.10;0.70;;;6.50;99.90;;;;;;5057303;28;20532;-55
2024/01/04 08:21:26;;;;;;;1.23;0.60;;;6.40;99.90;;;;;;5059777;28;20494;-47
2024/01/04 08:23:53;;;;;;;1.20;1.10;;;6.40;99.90;;;;;;5064220;28;20949;-51
2024/01/04 08:26:22;;;;;;;1.40;0.77;;;6.30;99.90;;;;;;5062181;28;20489;-55
2024/01/04 08:28:49;;;;;;;0.93;0.80;;;6.30;99.90;;;;;;5061312;28;20516;-53
2024/01/04 08:31:16;;;;;;;1.00;0.70;;;6.40;99.90;;;;;;5056552;28;20941;-64
2024/01/04 08:33:42;;;;;;;1.00;0.80;;;6.30;99.90;;;;;;5056598;28;20466;-65
2024/01/04 08:36:09;;;;;;;1.10;0.70;;;6.20;99.90;;;;;;5056883;28;20458;-66
2024/01/04 08:38:36;;;;;;;1.50;0.70;;;6.20;99.90;;;;;;5057067;28;20946;-66
2024/01/04 08:41:02;;;;;;;2.10;1.03;;;6.10;99.90;;;;;;5061439;28;20440;-65
2024/01/04 08:43:31;;;;;;;4.87;1.00;;;6.10;99.90;;;;;;5061501;28;20487;-65
2024/01/04 08:45:58;;;;;;;1.00;0.70;;;6.10;99.90;;;;;;5068373;28;20822;-66
2024/01/04 08:48:24;;;;;;;1.50;1.20;;;6.10;99.90;;;;;;5058815;28;20510;-66
2024/01/04 08:50:51;;;;;;;0.90;0.70;;;6.10;99.90;;;;;;5060298;28;21105;-65
2024/01/04 08:53:20;;;;;;;0.90;0.70;;;6.00;99.90;;;;;;5059823;28;20539;-65
2024/01/04 08:55:47;;;;;;;0.93;0.80;;;5.90;99.90;;;;;;5060922;28;20470;-65
2024/01/04 08:58:14;;;;;;;1.00;0.70;;;5.90;99.90;;;;;;5060245;28;20944;-65
2024/01/04 09:00:43;;;;;;;1.30;1.00;;;5.80;99.90;;;;;;5060311;28;20505;-66
2024/01/04 09:03:10;;;;;;;0.80;0.60;;;5.80;99.90;;;;;;5058717;28;20433;-65
2024/01/04 09:05:37;;;;;;;1.40;0.70;;;5.80;99.90;;;;;;5055221;28;20502;-64
2024/01/04 09:08:05;;;;;;;0.80;0.60;;;5.70;99.90;;;;;;5053570;28;20544;-63
2024/01/04 09:10:32;;;;;;;0.90;0.57;;;5.70;99.90;;;;;;5053603;28;20569;-63
2024/01/04 09:12:59;;;;;;;0.80;0.60;;;5.70;99.90;;;;;;5055690;28;20472;-62
2024/01/04 09:15:26;;;;;;;1.00;0.73;;;5.60;99.90;;;;;;5049351;28;20486;-69
2024/01/04 09:17:54;;;;;;;1.17;0.60;;;5.60;99.90;;;;;;5057154;28;20540;-66
2024/01/04 09:20:22;;;;;;;0.87;0.60;;;5.50;99.90;;;;;;5054849;28;20448;-60
2024/01/04 09:22:49;;;;;;;1.00;0.63;;;5.40;99.90;;;;;;5055920;28;20914;-64
2024/01/04 09:25:16;;;;;;;0.90;0.60;;;5.40;99.90;;;;;;5055888;28;20532;-62
2024/01/04 09:27:42;;;;;;;0.90;0.60;;;5.30;99.90;;;;;;5055818;28;20507;-64
2024/01/04 09:30:10;;;;;;;2.60;1.13;;;5.20;99.90;;;;;;5053203;28;20442;-64
2024/01/04 09:32:37;;;;;;;1.13;0.60;;;5.20;99.90;;;;;;5038066;28;20548;-64
2024/01/04 09:35:06;;;;;;;0.90;0.60;;;5.10;99.90;;;;;;5038054;28;20432;-60
2024/01/04 09:37:33;;;;;;;0.90;0.60;;;5.10;99.90;;;;;;5054667;28;20431;-59
2024/01/04 09:40:00;;;;;;;1.00;0.67;;;5.10;99.90;;;;;;5055680;28;20464;-66
2024/01/04 09:42:31;;;;;;;0.90;0.60;;;5.10;99.90;;;;;;5057280;28;20467;-64
2024/01/04 09:45:03;;;;;;;0.90;0.70;;;5.10;99.90;;;;;;5059495;28;20461;-60
2024/01/04 09:47:32;;;;;;;0.90;0.63;;;5.10;99.90;;;;;;5059458;28;20520;-61
2024/01/04 09:50:01;;;;;;;0.97;0.73;;;5.20;99.90;;;;;;5059347;28;20488;-58
2024/01/04 09:52:29;;;;;;;1.97;0.60;;;5.20;99.90;;;;;;5059342;28;20431;-61
2024/01/04 09:54:59;;;;;;;1.00;0.87;;;5.20;99.90;;;;;;5068511;28;20453;-61
2024/01/04 09:57:26;;;;;;;0.90;0.67;;;5.10;99.90;;;;;;5089694;28;20440;-62
2024/01/04 09:59:53;;;;;;;0.97;0.67;;;5.10;99.90;;;;;;5099074;28;20412;-65
2024/01/04 10:02:22;;;;;;;1.00;0.70;;;5.00;99.90;;;;;;5099046;28;20424;-63
2024/01/04 10:04:50;;;;;;;0.90;0.70;;;5.10;99.90;;;;;;5099191;28;20414;-61
2024/01/04 10:07:24;;;;;;;2.43;0.97;;;5.10;99.90;;;;;;5098884;28;20513;-63
2024/01/04 10:09:59;;;;;;;0.90;0.60;;;5.10;99.90;;;;;;5098954;28;20479;-61
2024/01/04 10:12:29;;;;;;;1.50;0.60;;;5.10;99.90;;;;;;5098912;28;20466;-62
2024/01/04 10:14:56;;;;;;;1.60;1.00;;;5.00;99.90;;;;;;5098934;28;20510;-62
2024/01/04 10:17:23;;;;;;;0.87;0.63;;;5.00;99.90;;;;;;5098774;28;20446;-59
2024/01/04 10:19:49;;;;;;;1.00;0.60;;;4.90;99.90;;;;;;5098852;28;20618;-58
2024/01/04 10:22:21;;;;;;;1.10;0.70;;;4.90;99.90;;;;;;5098474;28;20422;-62
2024/01/04 10:24:51;;;;;;;0.83;0.60;;;4.80;99.90;;;;;;5098826;28;20443;-58
2024/01/04 10:27:19;;;;;;;0.90;0.70;;;4.80;99.90;;;;;;5080596;28;20498;-56
2024/01/04 10:29:50;;;;;;;1.33;0.63;;;4.90;99.90;;;;;;5071158;28;20436;-62
2024/01/04 10:32:17;;;;;;;0.90;0.60;;;4.90;99.90;;;;;;5078562;28;20409;-61
2024/01/04 10:34:44;;;;;;;0.80;0.57;;;4.80;99.90;;;;;;5078525;28;20473;-59
2024/01/04 10:37:12;;;;;;;0.90;0.60;;;4.80;99.90;;;;;;5078412;28;20412;-62
2024/01/04 10:39:40;;;;;;;1.10;0.60;;;4.80;99.90;;;;;;5078404;28;20476;-57
2024/01/04 10:42:09;;;;;;;0.90;0.60;;;4.90;99.90;;;;;;5078490;28;20424;-62
2024/01/04 10:44:38;;;;;;;1.00;0.80;;;4.90;99.90;;;;;;5078384;28;20424;-57
2024/01/04 10:47:08;;;;;;;0.87;0.60;;;4.80;99.90;;;;;;5077753;28;20466;-61
2024/01/04 10:49:41;;;;;;;0.90;0.60;;;4.70;99.90;;;;;;5078290;28;20421;-61
2024/01/04 10:52:14;;;;;;;1.50;0.80;;;4.80;99.90;;;;;;5078316;28;20448;-60
2024/01/04 10:54:42;;;;;;;0.90;0.60;;;4.80;99.90;;;;;;5078420;28;20422;-59
2024/01/04 10:57:12;;;;;;;1.43;0.60;;;4.80;99.90;;;;;;5078154;28;20426;-60
2024/01/04 10:59:43;;;;;;;0.90;0.60;;;4.70;99.90;;;;;;5078233;28;20418;-62
2024/01/04 11:02:12;;;;;;;1.40;0.80;;;4.70;99.90;;;;;;5078096;28;20454;-60
2024/01/04 11:04:41;;;;;;;2.80;0.93;;;4.80;99.90;;;;;;5078196;28;20481;-59
2024/01/04 11:07:08;;;;;;;1.10;0.60;;;4.70;99.90;;;;;;5077263;28;20496;-63
2024/01/04 11:09:36;;;;;;;1.00;0.60;;;4.70;99.90;;;;;;5077826;28;20472;-61
2024/01/04 11:12:07;;;;;;;0.90;0.60;;;4.80;99.90;;;;;;5078064;28;20412;-62
2024/01/04 11:14:34;;;;;;;2.40;0.60;;;4.70;99.90;;;;;;5077476;28;20461;-59
2024/01/04 11:17:22;;;;;;;0.80;0.60;;;4.70;99.90;;;;;;5078133;28;20415;-60
2024/01/04 11:20:12;;;;;;;1.10;0.60;;;4.70;99.90;;;;;;5078103;28;20417;-57
2024/01/04 11:22:56;;;;;;;0.80;0.60;;;4.70;99.90;;;;;;5078169;28;20423;-60
2024/01/04 11:25:34;;;;;;;0.90;0.70;;;4.60;99.90;;;;;;5078036;28;20404;-60
2024/01/04 11:28:06;;;;;;;1.20;0.80;;;4.50;99.90;;;;;;5077999;28;20445;-61
2024/01/04 11:30:33;;;;;;;0.80;0.60;;;4.60;99.90;;;;;;5078168;28;20410;-60
2024/01/04 11:33:02;;;;;;;3.37;0.60;;;4.60;99.90;;;;;;5078044;28;20431;-62
2024/01/04 11:35:34;;;;;;;1.00;0.70;;;4.60;99.90;;;;;;5081415;28;20459;-61
2024/01/04 11:38:07;;;;;;;1.00;0.70;;;4.60;99.90;;;;;;5081837;28;20435;-60
2024/01/04 11:40:37;;;;;;;1.10;0.70;;;4.60;99.90;;;;;;5081884;28;20412;-59
2024/01/04 11:43:13;;;;;;;0.83;0.60;;;4.50;99.90;;;;;;5081666;28;20648;-60
2024/01/04 11:45:44;;;;;;;0.90;0.60;;;4.50;99.90;;;;;;5082010;28;20408;-56
2024/01/04 11:48:12;;;;;;;1.10;1.00;;;4.30;99.90;;;;;;5081639;28;20451;-59
2024/01/04 11:50:50;;;;;;;1.10;0.93;;;4.30;99.90;;;;;;5081760;28;20401;-59
2024/01/04 11:53:17;;;;;;;0.90;0.60;;;4.30;99.90;;;;;;5081774;28;20417;-58
2024/01/04 11:55:44;;;;;;;1.17;0.80;;;4.30;99.90;;;;;;5081614;28;20423;-60
2024/01/04 11:58:12;;;;;;;0.80;0.60;;;4.30;99.90;;;;;;5080972;28;20443;-60
2024/01/04 12:00:41;;;;;;;1.53;1.10;;;4.30;99.90;;;;;;5081337;28;20514;-58
2024/01/04 12:03:21;;;;;;;0.90;0.70;;;4.40;99.90;;;;;;5081556;28;20428;-62
2024/01/04 12:05:50;;;;;;;1.13;0.70;;;4.40;99.90;;;;;;5081383;28;20484;-58
2024/01/04 12:08:28;;;;;;;1.07;0.80;;;4.50;99.90;;;;;;5081345;28;20470;-62
2024/01/04 12:10:56;;;;;;;4.93;0.60;;;4.50;99.90;;;;;;5081287;28;20416;-61
2024/01/04 12:13:23;;;;;;;1.33;0.80;;;4.40;99.90;;;;;;5081348;28;20405;-59
2024/01/04 12:15:51;;;;;;;1.20;0.77;;;4.40;99.90;;;;;;5080906;28;20435;-58
2024/01/04 12:18:20;;;;;;;1.20;0.87;;;4.30;99.90;;;;;;5081121;28;20438;-60
2024/01/04 12:20:47;;;;;;;1.17;0.70;;;4.30;99.90;;;;;;5081120;28;20425;-63
2024/01/04 12:23:15;;;;;;;1.20;0.90;;;4.20;99.90;;;;;;5080970;28;20446;-58
2024/01/04 12:25:42;;;;;;;1.00;0.70;;;4.10;99.90;;;;;;5081251;28;20413;-63
2024/01/04 12:28:11;;;;;;;1.10;0.80;;;4.00;99.90;;;;;;5081019;28;20478;-62
2024/01/04 12:30:38;;;;;;;1.30;0.77;;;4.00;99.90;;;;;;5080996;28;20440;-60
2024/01/04 12:33:06;;;;;;;1.00;0.87;;;3.90;99.90;;;;;;5080986;28;20428;-61
2024/01/04 12:35:34;;;;;;;1.40;0.80;;;4.00;99.90;;;;;;5080794;28;20428;-58
2024/01/04 12:38:02;;;;;;;2.00;0.70;;;4.00;99.90;;;;;;5080857;28;20444;-56
2024/01/04 12:40:38;;;;;;;1.10;0.80;;;3.90;99.90;;;;;;5080772;28;20440;-60
2024/01/04 12:43:05;;;;;;;0.90;0.60;;;3.90;99.90;;;;;;5080741;28;20443;-61
2024/01/04 12:45:31;;;;;;;1.83;1.20;;;3.90;99.90;;;;;;5080300;28;20452;-61
2024/01/04 12:48:02;;;;;;;1.00;0.70;;;3.90;99.90;;;;;;5080390;28;20479;-64
2024/01/04 12:50:29;;;;;;;1.63;1.00;;;3.90;99.90;;;;;;5080522;28;20458;-62
2024/01/04 12:52:58;;;;;;;1.40;0.90;;;3.90;99.90;;;;;;5080675;28;20413;-60
2024/01/04 12:55:26;;;;;;;1.00;0.90;;;3.80;99.90;;;;;;5080477;28;20408;-57
2024/01/04 12:57:53;;;;;;;1.20;0.90;;;3.90;99.90;;;;;;5080311;28;20424;-58